Observation data for Denver City on 01/13/2021      Previous  Date  Next       Current Mesonet Observations  Soil Data  Daily Summary Page  Observations in Plain Language
KDVS 130600Z 24012KT M03/M06 A3019 RMK A01 T10331063  RH  080%=      5-min Rain = 0
KDVS 130605Z 24012KT M03/M06 A3019 RMK A01 T10321062  RH  080%=      5-min Rain = 0
KDVS 130610Z 25011KT M03/M06 A3019 RMK A01 T10331063  RH  080%=      5-min Rain = 0
KDVS 130615Z 25011KT M04/M07 A3019 RMK A01 T10361066  RH  080%=      5-min Rain = 0
KDVS 130620Z 25010KT M04/M07 A3019 RMK A01 T10401068  RH  081%=      5-min Rain = 0
KDVS 130625Z 25010KT M04/M07 A3019 RMK A01 T10431069  RH  082%=      5-min Rain = 0
KDVS 130630Z 25010KT M04/M07 A3019 RMK A01 T10431068  RH  083%=      5-min Rain = 0
KDVS 130635Z 25010KT M04/M07 A302 RMK A01 T10421067  RH  083%=      5-min Rain = 0
KDVS 130640Z 25010KT M04/M07 A302 RMK A01 T10441069  RH  083%=      5-min Rain = 0
KDVS 130645Z 25010KT M05/M07 A302 RMK A01 T10451069  RH  083%=      5-min Rain = 0
KDVS 130650Z 25011KT M05/M07 A302 RMK A01 T10451069  RH  083%=      5-min Rain = 0
KDVS 130655Z 25011KT M05/M07 A302 RMK A01 T10451069  RH  083%=      5-min Rain = 0
KDVS 130700Z 26011KT M05/M07 A302 RMK A01 T10451069  RH  084%=      5-min Rain = 0
KDVS 130705Z 25011KT M04/M07 A302 RMK A01 T10441068  RH  084%=      5-min Rain = 0
KDVS 130710Z 26011KT M04/M07 A302 RMK A01 T10441069  RH  083%=      5-min Rain = 0
KDVS 130715Z 26011KT M05/M07 A302 RMK A01 T10471070  RH  084%=      5-min Rain = 0
KDVS 130720Z 26012KT M05/M07 A302 RMK A01 T10461069  RH  084%=      5-min Rain = 0
KDVS 130725Z 26012KT M05/M07 A302 RMK A01 T10471070  RH  084%=      5-min Rain = 0
KDVS 130730Z 26012KT M05/M07 A302 RMK A01 T10471070  RH  084%=      5-min Rain = 0
KDVS 130735Z 27012KT M04/M07 A302 RMK A01 T10441067  RH  084%=      5-min Rain = 0
KDVS 130740Z 27012KT M04/M07 A302 RMK A01 T10431069  RH  083%=      5-min Rain = 0
KDVS 130745Z 26011KT M04/M07 A302 RMK A01 T10441069  RH  083%=      5-min Rain = 0
KDVS 130750Z 27011KT M04/M07 A302 RMK A01 T10441068  RH  083%=      5-min Rain = 0
KDVS 130755Z 26011KT M04/M07 A302 RMK A01 T10441068  RH  083%=      5-min Rain = 0
KDVS 130800Z 26011KT M05/M07 A302 RMK A01 T10451069  RH  083%=      5-min Rain = 0
KDVS 130805Z 27010KT M05/M07 A302 RMK A01 T10471071  RH  083%=      5-min Rain = 0
KDVS 130810Z 26011KT M05/M07 A302 RMK A01 T10461070  RH  083%=      5-min Rain = 0
KDVS 130815Z 27009KT M05/M07 A302 RMK A01 T10461071  RH  083%=      5-min Rain = 0
KDVS 130820Z 27009KT M05/M08 A302 RMK A01 T10521076  RH  083%=      5-min Rain = 0
KDVS 130825Z 27008KT M06/M09 A302 RMK A01 T10611085  RH  083%=      5-min Rain = 0
KDVS 130830Z 27009KT M07/M09 A302 RMK A01 T10661087  RH  085%=      5-min Rain = 0
KDVS 130835Z 26011KT M07/M09 A3019 RMK A01 T10671086  RH  086%=      5-min Rain = 0
KDVS 130840Z 26010KT M06/M08 A3019 RMK A01 T10621081  RH  086%=      5-min Rain = 0
KDVS 130845Z 25010KT M06/M08 A3019 RMK A01 T10611081  RH  086%=      5-min Rain = 0
KDVS 130850Z 25010KT M06/M08 A3019 RMK A01 T10571078  RH  085%=      5-min Rain = 0
KDVS 130855Z 25010KT M06/M08 A3018 RMK A01 T10551077  RH  085%=      5-min Rain = 0
KDVS 130900Z 25010KT M05/M07 A3018 RMK A01 T10521074  RH  084%=      5-min Rain = 0
KDVS 130905Z 25010KT M05/M07 A3018 RMK A01 T10461069  RH  084%=      5-min Rain = 0
KDVS 130910Z 24011KT M04/M07 A3018 RMK A01 T10421068  RH  082%=      5-min Rain = 0
KDVS 130915Z 24011KT M04/M07 A3018 RMK A01 T10431070  RH  082%=      5-min Rain = 0
KDVS 130920Z 24011KT M05/M07 A3018 RMK A01 T10471072  RH  083%=      5-min Rain = 0
KDVS 130925Z 25010KT M05/M07 A3018 RMK A01 T10501074  RH  083%=      5-min Rain = 0
KDVS 130930Z 25011KT M05/M07 A3018 RMK A01 T10511073  RH  084%=      5-min Rain = 0
KDVS 130935Z 25012KT M06/M08 A3018 RMK A01 T10561078  RH  084%=      5-min Rain = 0
KDVS 130940Z 24012KT M06/M08 A3017 RMK A01 T10591079  RH  085%=      5-min Rain = 0
KDVS 130945Z 24011KT M06/M08 A3017 RMK A01 T10611081  RH  086%=      5-min Rain = 0
KDVS 130950Z 24010KT M06/M08 A3017 RMK A01 T10641083  RH  086%=      5-min Rain = 0
KDVS 130955Z 25010KT M07/M09 A3016 RMK A01 T10661085  RH  086%=      5-min Rain = 0
KDVS 131000Z 25009KT M07/M08 A3016 RMK A01 T10661084  RH  087%=      5-min Rain = 0
KDVS 131005Z 25009KT M06/M08 A3016 RMK A01 T10611079  RH  087%=      5-min Rain = 0
KDVS 131010Z 25009KT M06/M08 A3015 RMK A01 T10581078  RH  086%=      5-min Rain = 0
KDVS 131015Z 25010KT M05/M08 A3015 RMK A01 T10541075  RH  085%=      5-min Rain = 0
KDVS 131020Z 25011KT M05/M07 A3015 RMK A01 T10511074  RH  084%=      5-min Rain = 0
KDVS 131025Z 25012KT M05/M08 A3015 RMK A01 T10521075  RH  084%=      5-min Rain = 0
KDVS 131030Z 24013KT M05/M07 A3015 RMK A01 T10501073  RH  084%=      5-min Rain = 0
KDVS 131035Z 24012KT M05/M07 A3014 RMK A01 T10491073  RH  084%=      5-min Rain = 0
KDVS 131040Z 24011KT M05/M08 A3014 RMK A01 T10521075  RH  084%=      5-min Rain = 0
KDVS 131045Z 24012KT M05/M07 A3014 RMK A01 T10511073  RH  085%=      5-min Rain = 0
KDVS 131050Z 24013KT M05/M07 A3014 RMK A01 T10461069  RH  084%=      5-min Rain = 0
KDVS 131055Z 24012KT M05/M07 A3014 RMK A01 T10461070  RH  083%=      5-min Rain = 0
KDVS 131100Z 25012KT M05/M07 A3014 RMK A01 T10471070  RH  084%=      5-min Rain = 0
KDVS 131105Z 25013KT M05/M07 A3013 RMK A01 T10461069  RH  084%=      5-min Rain = 0
KDVS 131110Z 25013KT M05/M07 A3013 RMK A01 T10491072  RH  084%=      5-min Rain = 0
KDVS 131115Z 25013KT M05/M07 A3013 RMK A01 T10511074  RH  084%=      5-min Rain = 0
KDVS 131120Z 25013KT M05/M08 A3013 RMK A01 T10531076  RH  084%=      5-min Rain = 0
KDVS 131125Z 25013KT M05/M08 A3013 RMK A01 T10531076  RH  084%=      5-min Rain = 0
KDVS 131130Z 25013KT M05/M08 A3013 RMK A01 T10541077  RH  084%=      5-min Rain = 0
KDVS 131135Z 26013KT M05/M08 A3013 RMK A01 T10521075  RH  084%=      5-min Rain = 0
KDVS 131140Z 26013KT M05/M08 A3013 RMK A01 T10521077  RH  083%=      5-min Rain = 0
KDVS 131145Z 26012KT M05/M07 A3013 RMK A01 T10471074  RH  082%=      5-min Rain = 0
KDVS 131150Z 26011KT M05/M08 A3013 RMK A01 T10501078  RH  081%=      5-min Rain = 0
KDVS 131155Z 26011KT M05/M08 A3012 RMK A01 T10511077  RH  082%=      5-min Rain = 0
KDVS 131200Z 27011KT M05/M08 A3012 RMK A01 T10531079  RH  082%=      5-min Rain = 0
KDVS 131205Z 27013KT M05/M07 A3012 RMK A01 T10471072  RH  083%=      5-min Rain = 0
KDVS 131210Z 28012KT M05/M08 A3013 RMK A01 T10471075  RH  081%=      5-min Rain = 0
KDVS 131215Z 28012KT M05/M08 A3013 RMK A01 T10521079  RH  082%=      5-min Rain = 0
KDVS 131220Z 28012KT M05/M08 A3013 RMK A01 T10541080  RH  082%=      5-min Rain = 0
KDVS 131225Z 28012KT M06/M09 A3014 RMK A01 T10621087  RH  082%=      5-min Rain = 0
KDVS 131230Z 28012KT M07/M09 A3013 RMK A01 T10651088  RH  084%=      5-min Rain = 0
KDVS 131235Z 28012KT M07/M09 A3013 RMK A01 T10681090  RH  084%=      5-min Rain = 0
KDVS 131240Z 28012KT M07/M09 A3013 RMK A01 T10691091  RH  084%=      5-min Rain = 0
KDVS 131245Z 28012KT M07/M09 A3013 RMK A01 T10681088  RH  085%=      5-min Rain = 0
KDVS 131250Z 28012KT M06/M09 A3013 RMK A01 T10641086  RH  085%=      5-min Rain = 0
KDVS 131255Z 28012KT M07/M09 A3013 RMK A01 T10671090  RH  083%=      5-min Rain = 0
KDVS 131300Z 28013KT M07/M09 A3013 RMK A01 T10681090  RH  084%=      5-min Rain = 0
KDVS 131305Z 28013KT M07/M09 A3013 RMK A01 T10671090  RH  084%=      5-min Rain = 0
KDVS 131310Z 28013KT M06/M09 A3013 RMK A01 T10641087  RH  083%=      5-min Rain = 0
KDVS 131315Z 28013KT M06/M09 A3013 RMK A01 T10621087  RH  082%=      5-min Rain = 0
KDVS 131320Z 27012KT M06/M09 A3012 RMK A01 T10621088  RH  082%=      5-min Rain = 0
KDVS 131325Z 27012KT M06/M09 A3012 RMK A01 T10591086  RH  081%=      5-min Rain = 0
KDVS 131330Z 27011KT M05/M08 A3012 RMK A01 T10531084  RH  079%=      5-min Rain = 0
KDVS 131335Z 27011KT M05/M09 A3012 RMK A01 T10521085  RH  078%=      5-min Rain = 0
KDVS 131340Z 27012KT M05/M08 A3012 RMK A01 T10471081  RH  077%=      5-min Rain = 0
KDVS 131345Z 28012KT M05/M08 A3012 RMK A01 T10451081  RH  076%=      5-min Rain = 0
KDVS 131350Z 28012KT M05/M09 A3012 RMK A01 T10501085  RH  076%=      5-min Rain = 0
KDVS 131355Z 28013KT M05/M09 A3012 RMK A01 T10541089  RH  077%=      5-min Rain = 0
KDVS 131400Z 29013KT M06/M09 A3012 RMK A01 T10611092  RH  078%=      5-min Rain = 0
KDVS 131405Z 28014KT M06/M09 A3012 RMK A01 T10591089  RH  079%=      5-min Rain = 0
KDVS 131410Z 28013KT M06/M09 A3012 RMK A01 T10581088  RH  079%=      5-min Rain = 0
KDVS 131415Z 28013KT M06/M09 A3012 RMK A01 T10571088  RH  079%=      5-min Rain = 0
KDVS 131420Z 28013KT M06/M09 A3012 RMK A01 T10561087  RH  079%=      5-min Rain = 0
KDVS 131425Z 28012KT M05/M08 A3011 RMK A01 T10521084  RH  078%=      5-min Rain = 0
KDVS 131430Z 28012KT M05/M09 A3012 RMK A01 T10541087  RH  078%=      5-min Rain = 0
KDVS 131435Z 29012KT M06/M09 A3012 RMK A01 T10591089  RH  079%=      5-min Rain = 0
KDVS 131440Z 28013KT M06/M09 A3012 RMK A01 T10571086  RH  080%=      5-min Rain = 0
KDVS 131445Z 28013KT M05/M08 A3011 RMK A01 T10521082  RH  080%=      5-min Rain = 0
KDVS 131450Z 28012KT M05/M08 A3011 RMK A01 T10511082  RH  079%=      5-min Rain = 0
KDVS 131455Z 28011KT M05/M09 A3011 RMK A01 T10541085  RH  079%=      5-min Rain = 0
KDVS 131500Z 28012KT M06/M08 A3011 RMK A01 T10551084  RH  080%=      5-min Rain = 0
KDVS 131505Z 28012KT M05/M08 A3011 RMK A01 T10511081  RH  079%=      5-min Rain = 0
KDVS 131510Z 29012KT M05/M08 A3011 RMK A01 T10481079  RH  079%=      5-min Rain = 0
KDVS 131515Z 29011KT M05/M08 A3011 RMK A01 T10501082  RH  078%=      5-min Rain = 0
KDVS 131520Z 29011KT M05/M08 A3011 RMK A01 T10521082  RH  079%=      5-min Rain = 0
KDVS 131525Z 30012KT M05/M08 A3011 RMK A01 T10501080  RH  079%=      5-min Rain = 0
KDVS 131530Z 30012KT M05/M08 A3012 RMK A01 T10491079  RH  079%=      5-min Rain = 0
KDVS 131535Z 29012KT M04/M08 A3011 RMK A01 T10441076  RH  079%=      5-min Rain = 0
KDVS 131540Z 29012KT M04/M07 A3011 RMK A01 T10401072  RH  078%=      5-min Rain = 0
KDVS 131545Z 29012KT M04/M07 A3011 RMK A01 T10371070  RH  078%=      5-min Rain = 0
KDVS 131550Z 29013KT M04/M07 A3012 RMK A01 T10361069  RH  078%=      5-min Rain = 0
KDVS 131555Z 29013KT M04/M07 A3012 RMK A01 T10351068  RH  078%=      5-min Rain = 0
KDVS 131600Z 28013KT M03/M07 A3012 RMK A01 T10321066  RH  078%=      5-min Rain = 0
KDVS 131605Z 28012KT M03/M06 A3012 RMK A01 T10291062  RH  078%=      5-min Rain = 0
KDVS 131610Z 28014KT M03/M06 A3012 RMK A01 T10261061  RH  077%=      5-min Rain = 0
KDVS 131615Z 28014KT M02/M06 A3012 RMK A01 T10241059  RH  077%=      5-min Rain = 0
KDVS 131620Z 27013KT M02/M06 A3012 RMK A01 T10201057  RH  076%=      5-min Rain = 0
KDVS 131625Z 27013KT M02/M05 A3012 RMK A01 T10151054  RH  075%=      5-min Rain = 0
KDVS 131630Z 27011KT M01/M05 A3012 RMK A01 T10111050  RH  075%=      5-min Rain = 0
KDVS 131635Z 27012KT M01/M05 A3012 RMK A01 T10061047  RH  074%=      5-min Rain = 0
KDVS 131640Z 27012KT M00/M05 A3012 RMK A01 T10031046  RH  073%=      5-min Rain = 0
KDVS 131645Z 27012KT M00/M04 A3012 RMK A01 T10011042  RH  074%=      5-min Rain = 0
KDVS 131650Z 27012KT 00/M04 A3011 RMK A01 T00021040  RH  074%=      5-min Rain = 0
KDVS 131655Z 27012KT 00/M04 A3011 RMK A01 T00031038  RH  074%=      5-min Rain = 0
KDVS 131700Z 27013KT 00/M04 A3011 RMK A01 T00031039  RH  074%=      5-min Rain = 0
KDVS 131705Z 27012KT 00/M04 A3011 RMK A01 T00011039  RH  075%=      5-min Rain = 0
KDVS 131710Z 27012KT 00/M04 A3011 RMK A01 T00021036  RH  076%=      5-min Rain = 0
KDVS 131715Z 28012KT 00/M04 A301 RMK A01 T00021035  RH  077%=      5-min Rain = 0
KDVS 131720Z 27012KT 01/M03 A301 RMK A01 T00061032  RH  076%=      5-min Rain = 0
KDVS 131725Z 27012KT 01/M03 A301 RMK A01 T00111028  RH  076%=      5-min Rain = 0
KDVS 131730Z 27010KT 02/M02 A301 RMK A01 T00171023  RH  075%=      5-min Rain = 0
KDVS 131735Z 27012KT 02/M02 A3009 RMK A01 T00231022  RH  073%=      5-min Rain = 0
KDVS 131740Z 27011KT 02/M02 A3009 RMK A01 T00221023  RH  072%=      5-min Rain = 0
KDVS 131745Z 27011KT 02/M02 A3009 RMK A01 T00221021  RH  074%=      5-min Rain = 0
KDVS 131750Z 26011KT 02/M02 A3009 RMK A01 T00241020  RH  074%=      5-min Rain = 0.01
KDVS 131755Z 26010KT 02/M02 A3008 RMK A01 T00221019  RH  075%=      5-min Rain = 0
KDVS 131800Z 26009KT 02/M02 A3008 RMK A01 T00221017  RH  076%=      5-min Rain = 0
KDVS 131805Z 26010KT 02/M02 A3007 RMK A01 T00241015  RH  076%=      5-min Rain = 0.01
KDVS 131810Z 26009KT 02/M01 A3007 RMK A01 T00231013  RH  078%=      5-min Rain = 0
KDVS 131815Z 25008KT 02/M01 A3007 RMK A01 T00241010  RH  079%=      5-min Rain = 0
KDVS 131820Z 25008KT 02/M01 A3006 RMK A01 T00241007  RH  081%=      5-min Rain = 0.01
KDVS 131825Z 25008KT 02/M01 A3006 RMK A01 T00241006  RH  082%=      5-min Rain = 0
KDVS 131830Z 25007KT 03/M00 A3005 RMK A01 T00251004  RH  082%=      5-min Rain = 0
KDVS 131835Z 25006KT 03/M00 A3005 RMK A01 T00261002  RH  082%=      5-min Rain = 0.01
KDVS 131840Z 24007KT 02/M00 A3004 RMK A01 T00241002  RH  084%=      5-min Rain = 0
KDVS 131845Z 24008KT 03/M01 A3004 RMK A01 T00271006  RH  080%=      5-min Rain = 0
KDVS 131850Z 24008KT 03/M01 A3003 RMK A01 T00311012  RH  074%=      5-min Rain = 0.01
KDVS 131855Z 24006KT 03/M01 A3003 RMK A01 T00321009  RH  075%=      5-min Rain = 0
KDVS 131900Z 23007KT 03/M01 A3003 RMK A01 T00331009  RH  075%=      5-min Rain = 0.01
KDVS 131905Z 24008KT 03/M01 A3002 RMK A01 T00331010  RH  074%=      5-min Rain = 0.01
KDVS 131910Z 24007KT 04/M01 A3002 RMK A01 T00351010  RH  073%=      5-min Rain = 0.01
KDVS 131915Z 24007KT 04/M01 A3001 RMK A01 T00351009  RH  074%=      5-min Rain = 0
KDVS 131920Z 24008KT 03/M01 A3001 RMK A01 T00341008  RH  075%=      5-min Rain = 0.01
KDVS 131925Z 23008KT 03/M01 A3001 RMK A01 T00341008  RH  075%=      5-min Rain = 0.01
KDVS 131930Z 24008KT 04/M01 A3001 RMK A01 T00351008  RH  075%=      5-min Rain = 0.01
KDVS 131935Z 24008KT 04/M01 A30 RMK A01 T00351006  RH  075%=      5-min Rain = 0
KDVS 131940Z 24008KT 04/M01 A30 RMK A01 T00351006  RH  076%=      5-min Rain = 0.01
KDVS 131945Z 23009KT 03/M01 A30 RMK A01 T00341006  RH  075%=      5-min Rain = 0.01
KDVS 131950Z 24009KT 04/M01 A2999 RMK A01 T00351006  RH  075%=      5-min Rain = 0.01
KDVS 131955Z 23009KT 04/M01 A2999 RMK A01 T00351006  RH  075%=      5-min Rain = 0
KDVS 132000Z 23010KT 04/M01 A2999 RMK A01 T00361008  RH  074%=      5-min Rain = 0.01
KDVS 132005Z 24009KT 04/M01 A2998 RMK A01 T00371007  RH  074%=      5-min Rain = 0.01
KDVS 132010Z 24009KT 04/M01 A2998 RMK A01 T00381007  RH  073%=      5-min Rain = 0.01
KDVS 132015Z 25010KT 04/M01 A2998 RMK A01 T00391007  RH  073%=      5-min Rain = 0
KDVS 132020Z 25011KT 04/M01 A2998 RMK A01 T00401009  RH  071%=      5-min Rain = 0.01
KDVS 132025Z 25011KT 04/M01 A2998 RMK A01 T00431012  RH  068%=      5-min Rain = 0.01
KDVS 132030Z 25012KT 04/M02 A2998 RMK A01 T00441015  RH  066%=      5-min Rain = 0
KDVS 132035Z 25011KT 04/M01 A2997 RMK A01 T00441013  RH  067%=      5-min Rain = 0.01
KDVS 132040Z 24012KT 05/M01 A2997 RMK A01 T00451012  RH  067%=      5-min Rain = 0.01
KDVS 132045Z 24013KT 05/M01 A2997 RMK A01 T00461012  RH  067%=      5-min Rain = 0
KDVS 132050Z 24012KT 05/M01 A2997 RMK A01 T00461010  RH  067%=      5-min Rain = 0.01
KDVS 132055Z 24011KT 05/M01 A2997 RMK A01 T00461009  RH  068%=      5-min Rain = 0.01
KDVS 132100Z 24010KT 05/M01 A2997 RMK A01 T00461008  RH  069%=      5-min Rain = 0
KDVS 132105Z 24009KT 05/M01 A2997 RMK A01 T00461007  RH  069%=      5-min Rain = 0.01
KDVS 132110Z 24008KT 05/M01 A2996 RMK A01 T00471006  RH  069%=      5-min Rain = 0
KDVS 132115Z 24008KT 05/M01 A2996 RMK A01 T00481006  RH  069%=      5-min Rain = 0.01
KDVS 132120Z 24008KT 05/M01 A2996 RMK A01 T00481006  RH  069%=      5-min Rain = 0.01
KDVS 132125Z 24008KT 05/M01 A2996 RMK A01 T00481007  RH  068%=      5-min Rain = 0
KDVS 132130Z 24008KT 05/M01 A2996 RMK A01 T00491007  RH  068%=      5-min Rain = 0.01
KDVS 132135Z 24008KT 05/M01 A2996 RMK A01 T00501008  RH  066%=      5-min Rain = 0
KDVS 132140Z 24008KT 05/M01 A2996 RMK A01 T00511008  RH  066%=      5-min Rain = 0.01
KDVS 132145Z 24008KT 05/M01 A2996 RMK A01 T00521010  RH  065%=      5-min Rain = 0
KDVS 132150Z 24009KT 05/M01 A2996 RMK A01 T00531011  RH  064%=      5-min Rain = 0.01
KDVS 132155Z 25010KT 05/M01 A2995 RMK A01 T00531012  RH  063%=      5-min Rain = 0
KDVS 132200Z 25012KT 05/M01 A2995 RMK A01 T00531013  RH  063%=      5-min Rain = 0
KDVS 132205Z 25012KT 06/M02 A2995 RMK A01 T00561015  RH  061%=      5-min Rain = 0
KDVS 132210Z 25011KT 06/M02 A2995 RMK A01 T00571015  RH  060%=      5-min Rain = 0
KDVS 132215Z 25013KT 06/M01 A2994 RMK A01 T00561014  RH  061%=      5-min Rain = 0
KDVS 132220Z 25015KT 06/M01 A2994 RMK A01 T00581014  RH  060%=      5-min Rain = 0
KDVS 132225Z 25017KT 06/M02 A2994 RMK A01 T00641017  RH  057%=      5-min Rain = 0
KDVS 132230Z 24019KT 07/M02 A2994 RMK A01 T00691018  RH  054%=      5-min Rain = 0
KDVS 132235Z 24018KT 07/M02 A2994 RMK A01 T00681017  RH  055%=      5-min Rain = 0
KDVS 132240Z 24015KT 07/M02 A2994 RMK A01 T00651015  RH  057%=      5-min Rain = 0.01
KDVS 132245Z 24015KT 06/M01 A2994 RMK A01 T00601012  RH  060%=      5-min Rain = 0.01
KDVS 132250Z 24015KT 06/M01 A2994 RMK A01 T00611012  RH  060%=      5-min Rain = 0
KDVS 132255Z 24020KT 07/M01 A2994 RMK A01 T00661014  RH  057%=      5-min Rain = 0.01
KDVS 132300Z 24022KT 07/M02 A2994 RMK A01 T00691015  RH  055%=      5-min Rain = 0.01
KDVS 132305Z 24016KT 07/M01 A2994 RMK A01 T00661013  RH  058%=      5-min Rain = 0.01
KDVS 132310Z 25013KT 06/M01 A2995 RMK A01 T00611010  RH  061%=      5-min Rain = 0.01
KDVS 132315Z 24012KT 06/M01 A2995 RMK A01 T00611008  RH  062%=      5-min Rain = 0
KDVS 132320Z 24011KT 06/M01 A2994 RMK A01 T00621007  RH  062%=      5-min Rain = 0.01
KDVS 132325Z 24010KT 06/M01 A2994 RMK A01 T00601006  RH  063%=      5-min Rain = 0
KDVS 132330Z 24010KT 06/M00 A2994 RMK A01 T00591004  RH  065%=      5-min Rain = 0.01
KDVS 132335Z 24009KT 06/M00 A2994 RMK A01 T00571003  RH  066%=      5-min Rain = 0
KDVS 132340Z 24008KT 05/M00 A2994 RMK A01 T00541002  RH  068%=      5-min Rain = 0.01
KDVS 132345Z 24008KT 05/M00 A2994 RMK A01 T00511001  RH  070%=      5-min Rain = 0
KDVS 132350Z 24008KT 05/M00 A2993 RMK A01 T00481001  RH  071%=      5-min Rain = 0
KDVS 132355Z 23009KT 05/00 A2993 RMK A01 T00500001  RH  071%=      5-min Rain = 0.01
KDVS 140000Z 22009KT 05/00 A2993 RMK A01 T00530000  RH  070%=      5-min Rain = 0
KDVS 140005Z 22009KT 05/M00 A2993 RMK A01 T00491001  RH  071%=      5-min Rain = 0
KDVS 140010Z 22009KT 05/M00 A2993 RMK A01 T00481001  RH  072%=      5-min Rain = 0
KDVS 140015Z 24008KT 05/M00 A2994 RMK A01 T00471001  RH  072%=      5-min Rain = 0
KDVS 140020Z 25009KT 04/M00 A2994 RMK A01 T00441001  RH  074%=      5-min Rain = 0
KDVS 140025Z 24009KT 04/00 A2994 RMK A01 T004200-0  RH  075%=      5-min Rain = 0.01
KDVS 140030Z 25010KT 04/00 A2994 RMK A01 T00430001  RH  075%=      5-min Rain = 0
KDVS 140035Z 25011KT 05/00 A2994 RMK A01 T00450001  RH  074%=      5-min Rain = 0
KDVS 140040Z 25012KT 05/00 A2994 RMK A01 T00470001  RH  073%=      5-min Rain = 0
KDVS 140045Z 25012KT 05/M00 A2994 RMK A01 T00471002  RH  071%=      5-min Rain = 0
KDVS 140050Z 25012KT 05/M00 A2995 RMK A01 T00461004  RH  071%=      5-min Rain = 0
KDVS 140055Z 24012KT 05/M00 A2995 RMK A01 T00471004  RH  070%=      5-min Rain = 0
KDVS 140100Z 24012KT 05/M00 A2995 RMK A01 T00501004  RH  069%=      5-min Rain = 0
KDVS 140105Z 24014KT 05/M00 A2995 RMK A01 T00531004  RH  067%=      5-min Rain = 0
KDVS 140110Z 24012KT 05/M01 A2995 RMK A01 T00511005  RH  068%=      5-min Rain = 0
KDVS 140115Z 24013KT 05/M00 A2994 RMK A01 T00511004  RH  068%=      5-min Rain = 0
KDVS 140120Z 24012KT 05/M01 A2994 RMK A01 T00521005  RH  067%=      5-min Rain = 0
KDVS 140125Z 24012KT 05/M01 A2994 RMK A01 T00491006  RH  068%=      5-min Rain = 0
KDVS 140130Z 25012KT 05/M01 A2994 RMK A01 T00461006  RH  069%=      5-min Rain = 0
KDVS 140135Z 24012KT 05/M01 A2994 RMK A01 T00451006  RH  070%=      5-min Rain = 0
KDVS 140140Z 24012KT 05/M01 A2994 RMK A01 T00491007  RH  067%=      5-min Rain = 0.01
KDVS 140145Z 25011KT 05/M01 A2994 RMK A01 T00501010  RH  065%=      5-min Rain = 0
KDVS 140150Z 25012KT 05/M01 A2994 RMK A01 T00511012  RH  064%=      5-min Rain = 0
KDVS 140155Z 24012KT 05/M01 A2994 RMK A01 T00521013  RH  064%=      5-min Rain = 0
KDVS 140200Z 25013KT 05/M01 A2993 RMK A01 T00521014  RH  063%=      5-min Rain = 0
KDVS 140205Z 24013KT 05/M02 A2993 RMK A01 T00521015  RH  063%=      5-min Rain = 0
KDVS 140210Z 25013KT 05/M02 A2993 RMK A01 T00501015  RH  063%=      5-min Rain = 0
KDVS 140215Z 24013KT 05/M02 A2993 RMK A01 T00511015  RH  063%=      5-min Rain = 0
KDVS 140220Z 24013KT 05/M02 A2993 RMK A01 T00541016  RH  061%=      5-min Rain = 0
KDVS 140225Z 24013KT 05/M02 A2993 RMK A01 T00521017  RH  062%=      5-min Rain = 0
KDVS 140230Z 25012KT 05/M02 A2993 RMK A01 T00481017  RH  063%=      5-min Rain = 0
KDVS 140235Z 25013KT 05/M02 A2993 RMK A01 T00471020  RH  062%=      5-min Rain = 0
KDVS 140240Z 25014KT 05/M02 A2993 RMK A01 T00481019  RH  062%=      5-min Rain = 0
KDVS 140245Z 25016KT 05/M02 A2992 RMK A01 T00501019  RH  061%=      5-min Rain = 0
KDVS 140250Z 25014KT 05/M02 A2992 RMK A01 T00491021  RH  061%=      5-min Rain = 0
KDVS 140255Z 25014KT 05/M02 A2992 RMK A01 T00451021  RH  063%=      5-min Rain = 0
KDVS 140300Z 25014KT 05/M02 A2992 RMK A01 T00451021  RH  062%=      5-min Rain = 0
KDVS 140305Z 25013KT 05/M02 A2992 RMK A01 T00451023  RH  062%=      5-min Rain = 0
KDVS 140310Z 25012KT 04/M02 A2992 RMK A01 T00441023  RH  062%=      5-min Rain = 0
KDVS 140315Z 26011KT 04/M02 A2992 RMK A01 T00411022  RH  064%=      5-min Rain = 0
KDVS 140320Z 25012KT 04/M02 A2991 RMK A01 T00411023  RH  063%=      5-min Rain = 0
KDVS 140325Z 25011KT 04/M03 A2991 RMK A01 T00411025  RH  063%=      5-min Rain = 0
KDVS 140330Z 25012KT 04/M03 A2991 RMK A01 T00401025  RH  063%=      5-min Rain = 0
KDVS 140335Z 25012KT 04/M03 A2991 RMK A01 T00381025  RH  064%=      5-min Rain = 0
KDVS 140340Z 25013KT 04/M03 A2991 RMK A01 T00381026  RH  063%=      5-min Rain = 0
KDVS 140345Z 25013KT 04/M03 A2991 RMK A01 T00391028  RH  062%=      5-min Rain = 0
KDVS 140350Z 25014KT 04/M03 A2991 RMK A01 T00411030  RH  061%=      5-min Rain = 0
KDVS 140355Z 25014KT 04/M03 A2991 RMK A01 T00421032  RH  059%=      5-min Rain = 0
KDVS 140400Z 25013KT 04/M03 A299 RMK A01 T00421032  RH  059%=      5-min Rain = 0
KDVS 140405Z 24013KT 04/M03 A299 RMK A01 T00431033  RH  058%=      5-min Rain = 0
KDVS 140410Z 24014KT 04/M03 A299 RMK A01 T00421033  RH  058%=      5-min Rain = 0
KDVS 140415Z 25014KT 04/M03 A299 RMK A01 T00391032  RH  060%=      5-min Rain = 0
KDVS 140420Z 25013KT 04/M03 A299 RMK A01 T00351031  RH  062%=      5-min Rain = 0
KDVS 140425Z 25013KT 03/M03 A299 RMK A01 T00331031  RH  063%=      5-min Rain = 0
KDVS 140430Z 25013KT 04/M03 A299 RMK A01 T00351032  RH  062%=      5-min Rain = 0
KDVS 140435Z 25014KT 04/M03 A299 RMK A01 T00371033  RH  061%=      5-min Rain = 0
KDVS 140440Z 25013KT 04/M03 A299 RMK A01 T00371033  RH  061%=      5-min Rain = 0
KDVS 140445Z 26013KT 04/M03 A299 RMK A01 T00351032  RH  062%=      5-min Rain = 0
KDVS 140450Z 25014KT 03/M03 A299 RMK A01 T00341032  RH  062%=      5-min Rain = 0
KDVS 140455Z 25014KT 04/M03 A299 RMK A01 T00351032  RH  062%=      5-min Rain = 0
KDVS 140500Z 26013KT 03/M03 A299 RMK A01 T00341031  RH  063%=      5-min Rain = 0
KDVS 140505Z 26014KT 03/M03 A299 RMK A01 T00341030  RH  063%=      5-min Rain = 0
KDVS 140510Z 26014KT 04/M03 A299 RMK A01 T00351030  RH  063%=      5-min Rain = 0
KDVS 140515Z 26013KT 03/M03 A2991 RMK A01 T00341029  RH  064%=      5-min Rain = 0
KDVS 140520Z 26013KT 03/M03 A299 RMK A01 T00331028  RH  065%=      5-min Rain = 0
KDVS 140525Z 26013KT 04/M03 A299 RMK A01 T00371028  RH  063%=      5-min Rain = 0
KDVS 140530Z 26013KT 04/M03 A299 RMK A01 T00401029  RH  061%=      5-min Rain = 0
KDVS 140535Z 26013KT 04/M03 A299 RMK A01 T00421029  RH  060%=      5-min Rain = 0
KDVS 140540Z 27014KT 04/M03 A299 RMK A01 T00401029  RH  061%=      5-min Rain = 0
KDVS 140545Z 27013KT 04/M03 A299 RMK A01 T00411028  RH  061%=      5-min Rain = 0
KDVS 140550Z 26013KT 05/M03 A299 RMK A01 T00451028  RH  060%=      5-min Rain = 0
KDVS 140555Z 26012KT 05/M03 A299 RMK A01 T00451028  RH  060%=      5-min Rain = 0

Page generated in 0.0082 seconds.